sensor_id;sensor_type;location;lat;lon;timestamp;temperature;humidity
4739;DHT22;2383;48.632;10.156;2023-04-24T00:03:36;11.40;99.90
4739;DHT22;2383;48.632;10.156;2023-04-24T00:07:40;11.40;99.90
4739;DHT22;2383;48.632;10.156;2023-04-24T00:11:42;11.40;99.90
4739;DHT22;2383;48.632;10.156;2023-04-24T00:15:44;11.20;99.90
4739;DHT22;2383;48.632;10.156;2023-04-24T00:19:47;10.90;99.90
4739;DHT22;2383;48.632;10.156;2023-04-24T00:23:49;10.90;99.90
4739;DHT22;2383;48.632;10.156;2023-04-24T00:27:51;11.00;99.90
4739;DHT22;2383;48.632;10.156;2023-04-24T00:31:53;11.00;99.90
4739;DHT22;2383;48.632;10.156;2023-04-24T00:35:55;10.90;99.90
4739;DHT22;2383;48.632;10.156;2023-04-24T00:39:58;11.00;99.90
4739;DHT22;2383;48.632;10.156;2023-04-24T00:44:00;11.10;99.90
4739;DHT22;2383;48.632;10.156;2023-04-24T00:48:02;10.90;99.90
4739;DHT22;2383;48.632;10.156;2023-04-24T00:52:06;10.70;99.90
4739;DHT22;2383;48.632;10.156;2023-04-24T00:56:10;10.50;99.90
4739;DHT22;2383;48.632;10.156;2023-04-24T01:00:13;10.40;99.90
4739;DHT22;2383;48.632;10.156;2023-04-24T01:04:16;10.60;99.90
4739;DHT22;2383;48.632;10.156;2023-04-24T01:08:22;10.80;99.90
4739;DHT22;2383;48.632;10.156;2023-04-24T01:12:25;11.00;99.70
4739;DHT22;2383;48.632;10.156;2023-04-24T01:16:27;10.80;99.80
4739;DHT22;2383;48.632;10.156;2023-04-24T01:20:30;10.90;99.90
4739;DHT22;2383;48.632;10.156;2023-04-24T01:24:33;10.90;99.90
4739;DHT22;2383;48.632;10.156;2023-04-24T01:28:37;10.80;99.90
4739;DHT22;2383;48.632;10.156;2023-04-24T01:32:40;10.90;99.70
4739;DHT22;2383;48.632;10.156;2023-04-24T01:36:45;11.00;99.40
4739;DHT22;2383;48.632;10.156;2023-04-24T01:40:47;10.90;99.60
4739;DHT22;2383;48.632;10.156;2023-04-24T01:44:50;10.90;99.70
4739;DHT22;2383;48.632;10.156;2023-04-24T01:48:53;10.50;99.80
4739;DHT22;2383;48.632;10.156;2023-04-24T01:52:55;10.50;99.90
4739;DHT22;2383;48.632;10.156;2023-04-24T01:56:57;10.50;99.80
4739;DHT22;2383;48.632;10.156;2023-04-24T02:00:59;10.50;99.90
4739;DHT22;2383;48.632;10.156;2023-04-24T02:05:02;10.20;99.90
4739;DHT22;2383;48.632;10.156;2023-04-24T02:09:04;10.40;99.90
4739;DHT22;2383;48.632;10.156;2023-04-24T02:13:06;10.40;99.90
4739;DHT22;2383;48.632;10.156;2023-04-24T02:17:08;10.50;99.90
4739;DHT22;2383;48.632;10.156;2023-04-24T02:21:11;10.30;99.90
4739;DHT22;2383;48.632;10.156;2023-04-24T02:25:13;10.30;99.90
4739;DHT22;2383;48.632;10.156;2023-04-24T02:29:15;10.40;99.90
4739;DHT22;2383;48.632;10.156;2023-04-24T02:33:17;10.30;99.80
4739;DHT22;2383;48.632;10.156;2023-04-24T02:37:19;10.20;99.90
4739;DHT22;2383;48.632;10.156;2023-04-24T02:41:21;10.30;99.90
4739;DHT22;2383;48.632;10.156;2023-04-24T02:45:23;10.50;99.90
4739;DHT22;2383;48.632;10.156;2023-04-24T02:49:25;10.50;99.80
4739;DHT22;2383;48.632;10.156;2023-04-24T02:53:29;10.60;99.70
4739;DHT22;2383;48.632;10.156;2023-04-24T02:57:32;10.60;99.60
4739;DHT22;2383;48.632;10.156;2023-04-24T03:01:34;10.60;99.60
4739;DHT22;2383;48.632;10.156;2023-04-24T03:05:37;10.70;99.60
4739;DHT22;2383;48.632;10.156;2023-04-24T03:09:40;10.50;99.80
4739;DHT22;2383;48.632;10.156;2023-04-24T03:13:42;10.30;99.90
4739;DHT22;2383;48.632;10.156;2023-04-24T03:17:44;10.30;99.90
4739;DHT22;2383;48.632;10.156;2023-04-24T03:21:46;10.30;99.80
4739;DHT22;2383;48.632;10.156;2023-04-24T03:25:49;10.40;99.80
4739;DHT22;2383;48.632;10.156;2023-04-24T03:29:53;10.40;99.80
4739;DHT22;2383;48.632;10.156;2023-04-24T03:34:08;10.50;99.60
4739;DHT22;2383;48.632;10.156;2023-04-24T03:38:11;10.60;99.80
4739;DHT22;2383;48.632;10.156;2023-04-24T03:42:13;10.60;99.50
4739;DHT22;2383;48.632;10.156;2023-04-24T03:46:24;10.60;99.30
4739;DHT22;2383;48.632;10.156;2023-04-24T03:50:31;10.40;99.60
4739;DHT22;2383;48.632;10.156;2023-04-24T03:54:34;10.50;99.60
4739;DHT22;2383;48.632;10.156;2023-04-24T03:58:36;10.60;99.60
4739;DHT22;2383;48.632;10.156;2023-04-24T04:02:39;10.20;99.80
4739;DHT22;2383;48.632;10.156;2023-04-24T04:06:43;9.80;99.90
4739;DHT22;2383;48.632;10.156;2023-04-24T04:10:47;10.00;99.90
4739;DHT22;2383;48.632;10.156;2023-04-24T04:14:49;10.40;99.90
4739;DHT22;2383;48.632;10.156;2023-04-24T04:18:51;10.50;99.80
4739;DHT22;2383;48.632;10.156;2023-04-24T04:22:53;10.20;99.90
4739;DHT22;2383;48.632;10.156;2023-04-24T04:27:05;9.80;99.90
4739;DHT22;2383;48.632;10.156;2023-04-24T04:31:16;9.90;99.90
4739;DHT22;2383;48.632;10.156;2023-04-24T04:35:18;10.20;99.90
4739;DHT22;2383;48.632;10.156;2023-04-24T04:39:20;10.30;99.90
4739;DHT22;2383;48.632;10.156;2023-04-24T04:43:31;10.50;99.70
4739;DHT22;2383;48.632;10.156;2023-04-24T04:47:35;10.30;99.70
4739;DHT22;2383;48.632;10.156;2023-04-24T04:51:37;10.20;99.90
4739;DHT22;2383;48.632;10.156;2023-04-24T04:55:43;10.10;99.90
4739;DHT22;2383;48.632;10.156;2023-04-24T04:59:49;10.10;99.90
4739;DHT22;2383;48.632;10.156;2023-04-24T05:04:01;10.10;99.90
4739;DHT22;2383;48.632;10.156;2023-04-24T05:08:04;10.00;99.90
4739;DHT22;2383;48.632;10.156;2023-04-24T05:12:10;9.90;99.90
4739;DHT22;2383;48.632;10.156;2023-04-24T05:16:21;10.00;99.90
4739;DHT22;2383;48.632;10.156;2023-04-24T05:20:26;9.70;99.90
4739;DHT22;2383;48.632;10.156;2023-04-24T05:24:29;9.50;99.90
4739;DHT22;2383;48.632;10.156;2023-04-24T05:29:02;9.60;99.90
4739;DHT22;2383;48.632;10.156;2023-04-24T05:33:05;9.60;99.90
4739;DHT22;2383;48.632;10.156;2023-04-24T05:37:09;9.70;99.90
4739;DHT22;2383;48.632;10.156;2023-04-24T05:41:11;9.80;99.90
4739;DHT22;2383;48.632;10.156;2023-04-24T05:45:14;9.70;99.90
4739;DHT22;2383;48.632;10.156;2023-04-24T05:49:18;9.70;99.90
4739;DHT22;2383;48.632;10.156;2023-04-24T05:53:21;10.00;99.90
4739;DHT22;2383;48.632;10.156;2023-04-24T05:57:24;10.10;99.90
4739;DHT22;2383;48.632;10.156;2023-04-24T06:01:35;10.20;99.90
4739;DHT22;2383;48.632;10.156;2023-04-24T06:05:44;10.00;99.90
4739;DHT22;2383;48.632;10.156;2023-04-24T06:09:47;9.70;99.90
4739;DHT22;2383;48.632;10.156;2023-04-24T06:13:50;7.40;99.40
4739;DHT22;2383;48.632;10.156;2023-04-24T06:18:19;6.70;99.90
4739;DHT22;2383;48.632;10.156;2023-04-24T06:22:22;6.00;99.90
4739;DHT22;2383;48.632;10.156;2023-04-24T06:26:24;5.80;99.90
4739;DHT22;2383;48.632;10.156;2023-04-24T06:30:28;5.90;99.90
4739;DHT22;2383;48.632;10.156;2023-04-24T06:34:30;5.90;99.90
4739;DHT22;2383;48.632;10.156;2023-04-24T06:38:34;6.00;99.90
4739;DHT22;2383;48.632;10.156;2023-04-24T06:42:36;6.20;99.90
4739;DHT22;2383;48.632;10.156;2023-04-24T06:46:42;6.60;99.90
4739;DHT22;2383;48.632;10.156;2023-04-24T06:50:44;7.40;99.90
4739;DHT22;2383;48.632;10.156;2023-04-24T06:54:47;7.90;99.90
4739;DHT22;2383;48.632;10.156;2023-04-24T06:58:49;8.10;99.90
4739;DHT22;2383;48.632;10.156;2023-04-24T07:02:51;8.30;99.80
4739;DHT22;2383;48.632;10.156;2023-04-24T07:06:54;8.50;99.70
4739;DHT22;2383;48.632;10.156;2023-04-24T07:10:57;8.60;99.90
4739;DHT22;2383;48.632;10.156;2023-04-24T07:15:00;8.50;99.50
4739;DHT22;2383;48.632;10.156;2023-04-24T07:19:02;8.80;99.90
4739;DHT22;2383;48.632;10.156;2023-04-24T07:23:04;9.20;99.80
4739;DHT22;2383;48.632;10.156;2023-04-24T07:27:06;9.50;99.60
4739;DHT22;2383;48.632;10.156;2023-04-24T07:31:10;9.70;99.90
4739;DHT22;2383;48.632;10.156;2023-04-24T07:35:12;9.60;99.90
4739;DHT22;2383;48.632;10.156;2023-04-24T07:39:14;9.50;99.40
4739;DHT22;2383;48.632;10.156;2023-04-24T07:43:16;9.50;99.90
4739;DHT22;2383;48.632;10.156;2023-04-24T07:47:19;9.80;99.50
4739;DHT22;2383;48.632;10.156;2023-04-24T07:51:22;9.80;99.30
4739;DHT22;2383;48.632;10.156;2023-04-24T07:55:24;9.50;98.30
4739;DHT22;2383;48.632;10.156;2023-04-24T07:59:29;9.60;98.50
4739;DHT22;2383;48.632;10.156;2023-04-24T08:03:31;9.60;98.10
4739;DHT22;2383;48.632;10.156;2023-04-24T08:07:33;9.30;99.40
4739;DHT22;2383;48.632;10.156;2023-04-24T08:11:37;9.00;99.90
4739;DHT22;2383;48.632;10.156;2023-04-24T08:15:39;9.40;99.60
4739;DHT22;2383;48.632;10.156;2023-04-24T08:19:42;10.00;99.40
4739;DHT22;2383;48.632;10.156;2023-04-24T08:23:49;10.10;99.60
4739;DHT22;2383;48.632;10.156;2023-04-24T08:27:51;10.10;97.00
4739;DHT22;2383;48.632;10.156;2023-04-24T08:31:54;10.20;98.10
4739;DHT22;2383;48.632;10.156;2023-04-24T08:35:56;10.00;98.60
4739;DHT22;2383;48.632;10.156;2023-04-24T08:39:58;10.40;97.40
4739;DHT22;2383;48.632;10.156;2023-04-24T08:44:02;10.40;96.40
4739;DHT22;2383;48.632;10.156;2023-04-24T08:48:04;9.30;98.50
4739;DHT22;2383;48.632;10.156;2023-04-24T08:52:18;8.80;98.80
4739;DHT22;2383;48.632;10.156;2023-04-24T08:56:22;9.20;98.80
4739;DHT22;2383;48.632;10.156;2023-04-24T09:00:25;8.20;98.50
4739;DHT22;2383;48.632;10.156;2023-04-24T09:04:28;7.50;99.90
4739;DHT22;2383;48.632;10.156;2023-04-24T09:08:32;7.20;99.90
4739;DHT22;2383;48.632;10.156;2023-04-24T09:12:35;7.20;99.90
4739;DHT22;2383;48.632;10.156;2023-04-24T09:16:37;7.20;99.90
4739;DHT22;2383;48.632;10.156;2023-04-24T09:21:03;7.80;99.90
4739;DHT22;2383;48.632;10.156;2023-04-24T09:25:09;8.10;99.90
4739;DHT22;2383;48.632;10.156;2023-04-24T09:29:15;8.90;99.20
4739;DHT22;2383;48.632;10.156;2023-04-24T09:33:18;8.90;99.90
4739;DHT22;2383;48.632;10.156;2023-04-24T09:37:28;9.00;97.90
4739;DHT22;2383;48.632;10.156;2023-04-24T09:41:32;8.80;98.20
4739;DHT22;2383;48.632;10.156;2023-04-24T09:45:36;8.40;97.80
4739;DHT22;2383;48.632;10.156;2023-04-24T09:49:38;8.00;98.50
4739;DHT22;2383;48.632;10.156;2023-04-24T09:53:46;8.50;98.60
4739;DHT22;2383;48.632;10.156;2023-04-24T09:58:00;9.20;96.60
4739;DHT22;2383;48.632;10.156;2023-04-24T10:02:03;8.50;95.30
4739;DHT22;2383;48.632;10.156;2023-04-24T10:06:18;8.40;91.10
4739;DHT22;2383;48.632;10.156;2023-04-24T10:10:20;8.50;91.80
4739;DHT22;2383;48.632;10.156;2023-04-24T10:14:24;8.60;90.50
4739;DHT22;2383;48.632;10.156;2023-04-24T10:18:27;8.40;91.30
4739;DHT22;2383;48.632;10.156;2023-04-24T10:22:29;9.30;91.50
4739;DHT22;2383;48.632;10.156;2023-04-24T10:26:32;8.90;91.70
4739;DHT22;2383;48.632;10.156;2023-04-24T10:30:34;8.80;91.90
4739;DHT22;2383;48.632;10.156;2023-04-24T10:34:36;9.10;91.70
4739;DHT22;2383;48.632;10.156;2023-04-24T10:38:40;8.80;92.00
4739;DHT22;2383;48.632;10.156;2023-04-24T10:42:47;8.70;91.50
4739;DHT22;2383;48.632;10.156;2023-04-24T10:46:53;8.90;90.90
4739;DHT22;2383;48.632;10.156;2023-04-24T10:50:56;9.20;90.80
4739;DHT22;2383;48.632;10.156;2023-04-24T10:55:01;8.40;89.80
4739;DHT22;2383;48.632;10.156;2023-04-24T10:59:07;8.20;90.10
4739;DHT22;2383;48.632;10.156;2023-04-24T11:03:31;7.80;90.60
4739;DHT22;2383;48.632;10.156;2023-04-24T11:12:14;7.50;91.00
4739;DHT22;2383;48.632;10.156;2023-04-24T11:20:46;8.00;87.80
4739;DHT22;2383;48.632;10.156;2023-04-24T11:24:50;8.40;86.50
4739;DHT22;2383;48.632;10.156;2023-04-24T11:29:09;8.20;86.40
4739;DHT22;2383;48.632;10.156;2023-04-24T11:33:11;8.10;85.60
4739;DHT22;2383;48.632;10.156;2023-04-24T11:37:13;8.20;87.40
4739;DHT22;2383;48.632;10.156;2023-04-24T11:41:15;8.80;86.80
4739;DHT22;2383;48.632;10.156;2023-04-24T11:45:29;8.70;86.20
4739;DHT22;2383;48.632;10.156;2023-04-24T11:49:32;8.80;85.80
4739;DHT22;2383;48.632;10.156;2023-04-24T11:53:36;9.30;87.30
4739;DHT22;2383;48.632;10.156;2023-04-24T11:57:38;9.10;84.90
4739;DHT22;2383;48.632;10.156;2023-04-24T12:01:44;8.90;84.90
4739;DHT22;2383;48.632;10.156;2023-04-24T12:05:47;8.80;85.90
4739;DHT22;2383;48.632;10.156;2023-04-24T12:09:59;8.50;83.90
4739;DHT22;2383;48.632;10.156;2023-04-24T12:14:11;8.80;85.90
4739;DHT22;2383;48.632;10.156;2023-04-24T12:18:15;9.20;85.10
4739;DHT22;2383;48.632;10.156;2023-04-24T12:22:18;9.70;83.80
4739;DHT22;2383;48.632;10.156;2023-04-24T12:26:21;9.90;84.20
4739;DHT22;2383;48.632;10.156;2023-04-24T12:30:29;9.50;83.60
4739;DHT22;2383;48.632;10.156;2023-04-24T12:34:31;9.20;84.50
4739;DHT22;2383;48.632;10.156;2023-04-24T12:38:33;9.40;86.10
4739;DHT22;2383;48.632;10.156;2023-04-24T12:46:48;9.00;83.90
4739;DHT22;2383;48.632;10.156;2023-04-24T12:50:50;8.60;85.20
4739;DHT22;2383;48.632;10.156;2023-04-24T12:54:53;8.80;83.60
4739;DHT22;2383;48.632;10.156;2023-04-24T12:58:57;8.70;84.10
4739;DHT22;2383;48.632;10.156;2023-04-24T13:02:59;8.80;85.30
4739;DHT22;2383;48.632;10.156;2023-04-24T13:07:01;8.40;86.00
4739;DHT22;2383;48.632;10.156;2023-04-24T13:11:04;8.40;87.30
4739;DHT22;2383;48.632;10.156;2023-04-24T13:15:06;8.40;88.20
4739;DHT22;2383;48.632;10.156;2023-04-24T13:19:09;8.90;88.70
4739;DHT22;2383;48.632;10.156;2023-04-24T13:23:11;9.30;86.60
4739;DHT22;2383;48.632;10.156;2023-04-24T13:27:13;10.00;86.20
4739;DHT22;2383;48.632;10.156;2023-04-24T13:31:15;10.40;84.10
4739;DHT22;2383;48.632;10.156;2023-04-24T13:35:17;9.70;83.20
4739;DHT22;2383;48.632;10.156;2023-04-24T13:39:19;9.80;83.30
4739;DHT22;2383;48.632;10.156;2023-04-24T13:43:21;9.10;83.50
4739;DHT22;2383;48.632;10.156;2023-04-24T13:47:23;9.30;83.70
4739;DHT22;2383;48.632;10.156;2023-04-24T13:51:26;9.10;86.40
4739;DHT22;2383;48.632;10.156;2023-04-24T13:55:30;9.30;85.00
4739;DHT22;2383;48.632;10.156;2023-04-24T13:59:32;9.10;82.80
4739;DHT22;2383;48.632;10.156;2023-04-24T14:03:35;9.60;83.40
4739;DHT22;2383;48.632;10.156;2023-04-24T14:07:39;10.00;83.70
4739;DHT22;2383;48.632;10.156;2023-04-24T14:11:41;9.70;83.00
4739;DHT22;2383;48.632;10.156;2023-04-24T14:15:43;9.50;83.70
4739;DHT22;2383;48.632;10.156;2023-04-24T14:19:46;9.10;83.90
4739;DHT22;2383;48.632;10.156;2023-04-24T14:23:48;9.40;84.90
4739;DHT22;2383;48.632;10.156;2023-04-24T14:27:50;10.00;83.90
4739;DHT22;2383;48.632;10.156;2023-04-24T14:31:53;10.40;83.10
4739;DHT22;2383;48.632;10.156;2023-04-24T14:35:55;9.90;82.60
4739;DHT22;2383;48.632;10.156;2023-04-24T14:39:57;9.50;82.70
4739;DHT22;2383;48.632;10.156;2023-04-24T14:44:19;9.70;83.40
4739;DHT22;2383;48.632;10.156;2023-04-24T14:48:21;8.80;83.70
4739;DHT22;2383;48.632;10.156;2023-04-24T14:52:23;9.50;84.70
4739;DHT22;2383;48.632;10.156;2023-04-24T14:56:26;9.70;83.10
4739;DHT22;2383;48.632;10.156;2023-04-24T15:00:28;9.10;85.30
4739;DHT22;2383;48.632;10.156;2023-04-24T15:04:30;9.10;85.20
4739;DHT22;2383;48.632;10.156;2023-04-24T15:08:33;9.10;85.60
4739;DHT22;2383;48.632;10.156;2023-04-24T15:12:35;9.10;85.80
4739;DHT22;2383;48.632;10.156;2023-04-24T15:16:37;9.00;85.40
4739;DHT22;2383;48.632;10.156;2023-04-24T15:20:39;9.00;85.70
4739;DHT22;2383;48.632;10.156;2023-04-24T15:24:43;8.30;86.10
4739;DHT22;2383;48.632;10.156;2023-04-24T15:28:45;8.20;85.60
4739;DHT22;2383;48.632;10.156;2023-04-24T15:32:48;7.30;88.30
4739;DHT22;2383;48.632;10.156;2023-04-24T15:36:50;7.30;90.50
4739;DHT22;2383;48.632;10.156;2023-04-24T15:40:52;7.60;90.80
4739;DHT22;2383;48.632;10.156;2023-04-24T15:44:54;8.70;90.30
4739;DHT22;2383;48.632;10.156;2023-04-24T15:48:56;8.70;90.10
4739;DHT22;2383;48.632;10.156;2023-04-24T15:52:58;8.90;90.30
4739;DHT22;2383;48.632;10.156;2023-04-24T15:57:01;8.80;90.60
4739;DHT22;2383;48.632;10.156;2023-04-24T16:01:04;9.00;90.00
4739;DHT22;2383;48.632;10.156;2023-04-24T16:05:06;9.60;90.00
4739;DHT22;2383;48.632;10.156;2023-04-24T16:09:09;9.30;89.10
4739;DHT22;2383;48.632;10.156;2023-04-24T16:13:15;9.40;89.40
4739;DHT22;2383;48.632;10.156;2023-04-24T16:17:19;8.90;89.70
4739;DHT22;2383;48.632;10.156;2023-04-24T16:21:21;8.30;90.10
4739;DHT22;2383;48.632;10.156;2023-04-24T16:25:23;8.60;90.50
4739;DHT22;2383;48.632;10.156;2023-04-24T16:29:26;8.90;89.70
4739;DHT22;2383;48.632;10.156;2023-04-24T16:33:28;8.40;89.30
4739;DHT22;2383;48.632;10.156;2023-04-24T16:37:32;8.80;90.20
4739;DHT22;2383;48.632;10.156;2023-04-24T16:41:34;9.40;89.60
4739;DHT22;2383;48.632;10.156;2023-04-24T16:45:36;9.60;88.10
4739;DHT22;2383;48.632;10.156;2023-04-24T16:49:38;9.80;88.20
4739;DHT22;2383;48.632;10.156;2023-04-24T16:53:40;10.00;88.80
4739;DHT22;2383;48.632;10.156;2023-04-24T16:57:42;9.90;88.10
4739;DHT22;2383;48.632;10.156;2023-04-24T17:01:45;10.10;87.40
4739;DHT22;2383;48.632;10.156;2023-04-24T17:05:48;10.30;87.60
4739;DHT22;2383;48.632;10.156;2023-04-24T17:09:51;10.50;87.80
4739;DHT22;2383;48.632;10.156;2023-04-24T17:13:53;10.60;86.80
4739;DHT22;2383;48.632;10.156;2023-04-24T17:17:55;10.50;86.90
4739;DHT22;2383;48.632;10.156;2023-04-24T17:21:58;10.30;86.50
4739;DHT22;2383;48.632;10.156;2023-04-24T17:26:00;10.20;88.40
4739;DHT22;2383;48.632;10.156;2023-04-24T17:30:03;9.90;86.50
4739;DHT22;2383;48.632;10.156;2023-04-24T17:34:05;9.60;87.30
4739;DHT22;2383;48.632;10.156;2023-04-24T17:38:08;9.80;86.50
4739;DHT22;2383;48.632;10.156;2023-04-24T17:42:10;10.10;86.80
4739;DHT22;2383;48.632;10.156;2023-04-24T17:46:13;10.30;86.10
4739;DHT22;2383;48.632;10.156;2023-04-24T17:50:15;10.10;84.80
4739;DHT22;2383;48.632;10.156;2023-04-24T17:54:17;10.10;86.10
4739;DHT22;2383;48.632;10.156;2023-04-24T17:58:19;10.40;85.30
4739;DHT22;2383;48.632;10.156;2023-04-24T18:02:22;10.40;85.70
4739;DHT22;2383;48.632;10.156;2023-04-24T18:06:24;10.40;87.40
4739;DHT22;2383;48.632;10.156;2023-04-24T18:10:27;10.20;86.90
4739;DHT22;2383;48.632;10.156;2023-04-24T18:14:30;10.20;86.80
4739;DHT22;2383;48.632;10.156;2023-04-24T18:18:32;10.10;87.20
4739;DHT22;2383;48.632;10.156;2023-04-24T18:22:35;9.90;87.50
4739;DHT22;2383;48.632;10.156;2023-04-24T18:26:37;9.90;85.90
4739;DHT22;2383;48.632;10.156;2023-04-24T18:30:39;9.80;87.60
4739;DHT22;2383;48.632;10.156;2023-04-24T18:34:42;10.10;88.10
4739;DHT22;2383;48.632;10.156;2023-04-24T18:38:44;10.10;86.80
4739;DHT22;2383;48.632;10.156;2023-04-24T18:42:47;10.10;87.70
4739;DHT22;2383;48.632;10.156;2023-04-24T18:46:49;10.10;87.20
4739;DHT22;2383;48.632;10.156;2023-04-24T18:50:51;10.00;88.50
4739;DHT22;2383;48.632;10.156;2023-04-24T18:54:53;10.00;88.60
4739;DHT22;2383;48.632;10.156;2023-04-24T18:58:55;9.90;89.10
4739;DHT22;2383;48.632;10.156;2023-04-24T19:02:58;9.90;89.00
4739;DHT22;2383;48.632;10.156;2023-04-24T19:07:00;9.90;90.30
4739;DHT22;2383;48.632;10.156;2023-04-24T19:11:03;9.60;90.30
4739;DHT22;2383;48.632;10.156;2023-04-24T19:15:06;9.60;90.40
4739;DHT22;2383;48.632;10.156;2023-04-24T19:19:12;9.60;90.20
4739;DHT22;2383;48.632;10.156;2023-04-24T19:23:14;9.60;90.10
4739;DHT22;2383;48.632;10.156;2023-04-24T19:27:16;9.60;90.00
4739;DHT22;2383;48.632;10.156;2023-04-24T19:31:19;9.60;90.30
4739;DHT22;2383;48.632;10.156;2023-04-24T19:35:21;9.50;90.70
4739;DHT22;2383;48.632;10.156;2023-04-24T19:39:24;9.40;91.10
4739;DHT22;2383;48.632;10.156;2023-04-24T19:43:26;9.40;91.10
4739;DHT22;2383;48.632;10.156;2023-04-24T19:47:28;9.40;91.10
4739;DHT22;2383;48.632;10.156;2023-04-24T19:51:30;9.10;91.40
4739;DHT22;2383;48.632;10.156;2023-04-24T19:55:34;8.60;91.90
4739;DHT22;2383;48.632;10.156;2023-04-24T19:59:36;8.40;92.20
4739;DHT22;2383;48.632;10.156;2023-04-24T20:03:38;8.40;92.00
4739;DHT22;2383;48.632;10.156;2023-04-24T20:07:41;8.40;91.60
4739;DHT22;2383;48.632;10.156;2023-04-24T20:11:44;8.40;91.20
4739;DHT22;2383;48.632;10.156;2023-04-24T20:15:48;8.50;91.30
4739;DHT22;2383;48.632;10.156;2023-04-24T20:19:50;8.40;91.50
4739;DHT22;2383;48.632;10.156;2023-04-24T20:23:52;8.20;91.20
4739;DHT22;2383;48.632;10.156;2023-04-24T20:27:55;8.10;90.70
4739;DHT22;2383;48.632;10.156;2023-04-24T20:31:57;8.10;90.50
4739;DHT22;2383;48.632;10.156;2023-04-24T20:36:00;8.10;90.70
4739;DHT22;2383;48.632;10.156;2023-04-24T20:40:02;8.00;91.00
4739;DHT22;2383;48.632;10.156;2023-04-24T20:44:07;8.00;90.90
4739;DHT22;2383;48.632;10.156;2023-04-24T20:48:09;8.00;91.20
4739;DHT22;2383;48.632;10.156;2023-04-24T20:52:13;7.30;92.20
4739;DHT22;2383;48.632;10.156;2023-04-24T20:56:16;7.00;92.50
4739;DHT22;2383;48.632;10.156;2023-04-24T21:00:18;6.80;93.00
4739;DHT22;2383;48.632;10.156;2023-04-24T21:04:20;6.70;93.10
4739;DHT22;2383;48.632;10.156;2023-04-24T21:08:22;6.80;93.20
4739;DHT22;2383;48.632;10.156;2023-04-24T21:12:24;7.20;92.90
4739;DHT22;2383;48.632;10.156;2023-04-24T21:16:27;7.40;92.70
4739;DHT22;2383;48.632;10.156;2023-04-24T21:20:29;7.70;92.20
4739;DHT22;2383;48.632;10.156;2023-04-24T21:24:31;7.90;92.30
4739;DHT22;2383;48.632;10.156;2023-04-24T21:28:33;8.10;92.40
4739;DHT22;2383;48.632;10.156;2023-04-24T21:32:35;8.20;92.20
4739;DHT22;2383;48.632;10.156;2023-04-24T21:36:38;8.20;92.00
4739;DHT22;2383;48.632;10.156;2023-04-24T21:40:40;8.30;91.90
4739;DHT22;2383;48.632;10.156;2023-04-24T21:44:42;8.30;92.10
4739;DHT22;2383;48.632;10.156;2023-04-24T21:48:44;7.90;92.20
4739;DHT22;2383;48.632;10.156;2023-04-24T21:52:47;7.50;92.60
4739;DHT22;2383;48.632;10.156;2023-04-24T21:56:49;7.10;92.80
4739;DHT22;2383;48.632;10.156;2023-04-24T22:00:51;7.30;93.00
4739;DHT22;2383;48.632;10.156;2023-04-24T22:04:53;7.50;93.00
4739;DHT22;2383;48.632;10.156;2023-04-24T22:08:57;7.60;92.60
4739;DHT22;2383;48.632;10.156;2023-04-24T22:12:59;7.30;93.00
4739;DHT22;2383;48.632;10.156;2023-04-24T22:17:02;7.20;93.50
4739;DHT22;2383;48.632;10.156;2023-04-24T22:21:04;7.60;93.40
4739;DHT22;2383;48.632;10.156;2023-04-24T22:25:07;7.30;93.70
4739;DHT22;2383;48.632;10.156;2023-04-24T22:29:09;7.10;93.60
4739;DHT22;2383;48.632;10.156;2023-04-24T22:33:11;6.60;94.50
4739;DHT22;2383;48.632;10.156;2023-04-24T22:37:13;6.90;94.40
4739;DHT22;2383;48.632;10.156;2023-04-24T22:41:16;6.90;94.30
4739;DHT22;2383;48.632;10.156;2023-04-24T22:45:18;7.00;94.20
4739;DHT22;2383;48.632;10.156;2023-04-24T22:49:24;7.40;93.80
4739;DHT22;2383;48.632;10.156;2023-04-24T22:53:28;7.60;93.50
4739;DHT22;2383;48.632;10.156;2023-04-24T22:57:30;7.70;93.10
4739;DHT22;2383;48.632;10.156;2023-04-24T23:01:32;7.50;93.40
4739;DHT22;2383;48.632;10.156;2023-04-24T23:05:34;7.40;93.50
4739;DHT22;2383;48.632;10.156;2023-04-24T23:09:37;7.40;93.50
4739;DHT22;2383;48.632;10.156;2023-04-24T23:13:39;7.30;93.50
4739;DHT22;2383;48.632;10.156;2023-04-24T23:17:41;7.30;93.40
4739;DHT22;2383;48.632;10.156;2023-04-24T23:21:44;7.40;93.20
4739;DHT22;2383;48.632;10.156;2023-04-24T23:25:46;6.90;93.30
4739;DHT22;2383;48.632;10.156;2023-04-24T23:29:48;6.60;93.60
4739;DHT22;2383;48.632;10.156;2023-04-24T23:33:50;6.60;93.40
4739;DHT22;2383;48.632;10.156;2023-04-24T23:37:53;6.60;93.30
4739;DHT22;2383;48.632;10.156;2023-04-24T23:41:57;6.50;93.60
4739;DHT22;2383;48.632;10.156;2023-04-24T23:46:00;6.30;94.00
4739;DHT22;2383;48.632;10.156;2023-04-24T23:50:02;6.50;93.80
4739;DHT22;2383;48.632;10.156;2023-04-24T23:54:04;6.50;94.10
4739;DHT22;2383;48.632;10.156;2023-04-24T23:58:06;6.60;93.80
